Irrigon, Oregon
Current Conditions -  °F | °C
As of 5:53 AM on Friday 19 Dec 2014 (Local Time) from KHRI Reporting Station
Haze Haze  
Wind Chill: 34°   Ceiling: 5000
Heat Index: 38°   Visibility: 2mi
Dew Point: 36°   Wind: 5mph
Humidity: 93%   Direction: 230°SW
Pressure: 29.92"   Gusts: NA
Location:  45.9°N, 119.49°W
Report Text: KHRI 191353Z AUTO 23004KT 2SM BR SCT005 OVC050 03/02 A2992 RMK AO2 SLP134 T00330022
Loading
Personal Weather Stations






























Interactive Weather Map New forecast layout! Learn more

10-Day Weather Forecast

Advertisements
Track Severe Weather on mobile